createdAt,value
2023-02-14T00:04:50.901Z,99.90
2023-02-14T00:09:53.159Z,99.90
2023-02-14T00:15:14.206Z,99.90
2023-02-14T00:20:16.620Z,99.90
2023-02-14T00:25:19.225Z,99.90
2023-02-14T00:30:21.688Z,99.90
2023-02-14T00:35:23.962Z,99.90
2023-02-14T00:40:26.199Z,99.90
2023-02-14T00:45:28.467Z,99.90
2023-02-14T00:50:30.733Z,99.90
2023-02-14T00:55:33.009Z,99.90
2023-02-14T01:00:35.284Z,99.90
2023-02-14T01:05:37.739Z,99.90
2023-02-14T01:10:40.677Z,99.90
2023-02-14T01:15:46.126Z,99.90
2023-02-14T01:20:48.409Z,99.90
2023-02-14T01:25:50.677Z,99.90
2023-02-14T01:30:52.934Z,99.90
2023-02-14T01:35:55.672Z,99.90
2023-02-14T01:40:58.387Z,99.90
2023-02-14T01:46:00.843Z,99.90
2023-02-14T01:51:03.275Z,99.90
2023-02-14T01:56:10.224Z,99.90
2023-02-14T02:01:17.887Z,99.90
2023-02-14T02:06:30.748Z,99.90
2023-02-14T02:11:33.589Z,99.90
2023-02-14T02:17:00.112Z,99.90
2023-02-14T02:22:23.665Z,99.90
2023-02-14T02:27:38.848Z,99.90
2023-02-14T02:33:25.056Z,99.90
2023-02-14T02:39:02.293Z,99.90
2023-02-14T02:44:07.364Z,99.90
2023-02-14T02:49:43.926Z,99.90
2023-02-14T02:54:53.793Z,99.90
2023-02-14T02:59:57.937Z,99.90
2023-02-14T03:05:05.538Z,99.90
2023-02-14T03:10:15.537Z,99.90
2023-02-14T03:15:19.132Z,99.90
2023-02-14T03:20:29.288Z,99.90
2023-02-14T03:25:41.652Z,99.90
2023-02-14T03:31:13.168Z,99.90
2023-02-14T03:36:23.001Z,99.90
2023-02-14T03:41:29.858Z,99.90
2023-02-14T03:46:45.106Z,99.90
2023-02-14T03:51:50.670Z,99.90
2023-02-14T03:57:08.300Z,99.90
2023-02-14T04:02:32.233Z,99.90
2023-02-14T04:07:47.929Z,99.90
2023-02-14T04:12:50.532Z,99.90
2023-02-14T04:18:11.658Z,99.90
2023-02-14T04:23:13.898Z,99.90
2023-02-14T04:28:16.296Z,99.90
2023-02-14T04:33:18.555Z,99.90
2023-02-14T04:38:20.845Z,99.90
2023-02-14T04:43:23.111Z,99.90
2023-02-14T04:48:25.471Z,99.90
2023-02-14T04:53:27.820Z,99.90
2023-02-14T04:58:30.064Z,99.90
2023-02-14T05:03:32.329Z,99.90
2023-02-14T05:08:34.619Z,99.90
2023-02-14T05:13:37.944Z,99.90
2023-02-14T05:18:40.468Z,99.90
2023-02-14T05:23:42.758Z,99.90
2023-02-14T05:28:45.322Z,99.90
2023-02-14T05:33:47.605Z,99.90
2023-02-14T05:38:49.902Z,99.90
2023-02-14T05:43:52.160Z,99.90
2023-02-14T05:48:54.420Z,99.90
2023-02-14T05:53:59.936Z,99.90
2023-02-14T05:59:02.239Z,99.90
2023-02-14T06:04:04.582Z,99.90
2023-02-14T06:09:06.954Z,99.90
2023-02-14T06:14:09.226Z,99.90
2023-02-14T06:19:11.506Z,99.90
2023-02-14T06:24:14.272Z,99.90
2023-02-14T06:29:17.490Z,99.90
2023-02-14T06:34:19.858Z,99.90
2023-02-14T06:39:22.160Z,99.90
2023-02-14T06:44:24.480Z,99.90
2023-02-14T06:49:26.752Z,99.90
2023-02-14T06:54:28.996Z,99.90
2023-02-14T06:59:31.264Z,99.90
2023-02-14T07:04:33.591Z,99.90
2023-02-14T07:09:36.133Z,99.90
2023-02-14T07:14:38.474Z,99.90
2023-02-14T07:19:41.132Z,99.90
2023-02-14T07:24:43.389Z,99.90
2023-02-14T07:29:49.026Z,99.90
2023-02-14T07:34:51.957Z,99.90
2023-02-14T07:39:54.268Z,99.90
2023-02-14T07:44:56.613Z,99.90
2023-02-14T07:49:58.922Z,99.90
2023-02-14T07:55:01.262Z,99.90
2023-02-14T08:00:12.643Z,99.90
2023-02-14T08:05:15.560Z,99.90
2023-02-14T08:10:18.343Z,99.90
2023-02-14T08:15:41.627Z,99.90
2023-02-14T08:20:45.378Z,99.10
2023-02-14T08:25:52.378Z,99.20
2023-02-14T08:30:55.301Z,98.60
2023-02-14T08:35:57.686Z,98.20
2023-02-14T08:41:03.765Z,97.30
2023-02-14T08:46:06.948Z,97.20
2023-02-14T08:51:12.367Z,96.50
2023-02-14T08:56:15.367Z,95.80
2023-02-14T09:01:18.351Z,95.60
2023-02-14T09:06:20.901Z,94.90
2023-02-14T09:11:24.793Z,94.60
2023-02-14T09:16:27.238Z,93.60
2023-02-14T09:21:30.193Z,94.10
2023-02-14T09:26:32.799Z,93.30
2023-02-14T09:31:35.403Z,92.20
2023-02-14T09:36:56.771Z,91.40
2023-02-14T09:42:19.571Z,90.40
2023-02-14T09:47:40.903Z,92.00
2023-02-14T09:52:43.241Z,90.00
2023-02-14T09:58:03.467Z,90.60
2023-02-14T10:03:27.494Z,90.40
2023-02-14T10:08:58.047Z,90.80
2023-02-14T10:14:08.715Z,88.40
2023-02-14T10:19:16.697Z,88.00
2023-02-14T10:24:28.717Z,85.40
2023-02-14T10:29:31.057Z,87.70
2023-02-14T10:34:56.511Z,85.70
2023-02-14T10:40:23.365Z,84.80
2023-02-14T10:46:07.429Z,84.20
2023-02-14T10:51:36.803Z,84.40
2023-02-14T10:56:45.646Z,83.40
2023-02-14T11:01:51.666Z,81.70
2023-02-14T11:06:54.023Z,80.20
2023-02-14T11:12:00.289Z,81.60
2023-02-14T11:17:46.766Z,82.50
2023-02-14T11:22:52.515Z,80.30
2023-02-14T11:33:40.361Z,77.80
2023-02-14T11:38:46.069Z,75.50
2023-02-14T11:43:49.358Z,77.10
2023-02-14T11:48:59.144Z,78.90
2023-02-14T11:54:05.028Z,77.10
2023-02-14T11:59:07.536Z,76.90
2023-02-14T12:04:21.239Z,75.20
2023-02-14T12:20:58.438Z,77.60
2023-02-14T12:26:35.044Z,78.90
2023-02-14T12:31:37.437Z,77.40
2023-02-14T12:37:31.141Z,73.40
2023-02-14T12:44:14.377Z,73.90
2023-02-14T12:56:36.488Z,74.40
2023-02-14T13:08:25.050Z,75.70
2023-02-14T13:26:06.404Z,74.00
2023-02-14T13:36:41.174Z,75.40
2023-02-14T13:41:43.824Z,76.10
2023-02-14T13:46:51.969Z,77.30
2023-02-14T13:52:06.504Z,77.50
2023-02-14T13:57:59.520Z,77.80
2023-02-14T14:03:02.542Z,79.30
2023-02-14T14:08:23.479Z,77.80
2023-02-14T14:13:41.029Z,77.30
2023-02-14T14:18:43.718Z,75.10
2023-02-14T14:24:02.013Z,73.60
2023-02-14T14:29:24.625Z,74.40
2023-02-14T14:34:28.468Z,73.60
2023-02-14T14:39:33.679Z,71.60
2023-02-14T14:44:43.928Z,71.00
2023-02-14T14:49:48.745Z,72.40
2023-02-14T14:54:51.318Z,72.70
2023-02-14T15:00:20.037Z,77.10
2023-02-14T15:05:37.762Z,78.90
2023-02-14T15:10:42.713Z,80.10
2023-02-14T15:15:50.897Z,80.10
2023-02-14T15:20:53.851Z,81.00
2023-02-14T15:25:56.307Z,81.40
2023-02-14T15:31:02.350Z,81.10
2023-02-14T15:36:08.779Z,81.90
2023-02-14T15:41:13.865Z,83.30
2023-02-14T15:46:29.583Z,84.10
2023-02-14T15:51:35.808Z,85.00
2023-02-14T15:56:49.060Z,86.30
2023-02-14T16:01:55.760Z,86.60
2023-02-14T16:07:25.347Z,87.80
2023-02-14T16:12:36.984Z,90.00
2023-02-14T16:17:44.172Z,89.10
2023-02-14T16:22:46.844Z,90.00
2023-02-14T16:27:49.325Z,89.30
2023-02-14T16:32:53.784Z,90.20
2023-02-14T16:37:56.292Z,90.70
2023-02-14T16:42:59.273Z,91.10
2023-02-14T16:48:01.897Z,91.60
2023-02-14T16:53:06.538Z,92.40
2023-02-14T16:58:09.174Z,92.90
2023-02-14T17:03:11.644Z,94.40
2023-02-14T17:08:16.004Z,94.50
2023-02-14T17:13:22.182Z,95.20
2023-02-14T17:18:25.388Z,96.20
2023-02-14T17:23:27.724Z,96.60
2023-02-14T17:28:30.034Z,97.40
2023-02-14T17:33:33.462Z,97.70
2023-02-14T17:38:36.022Z,97.80
2023-02-14T17:43:38.273Z,97.30
2023-02-14T17:48:41.670Z,97.80
2023-02-14T17:53:44.292Z,98.30
2023-02-14T17:58:48.510Z,98.60
2023-02-14T18:03:54.290Z,99.10
2023-02-14T18:08:59.610Z,99.90
2023-02-14T18:14:03.703Z,99.00
2023-02-14T18:19:06.969Z,99.90
2023-02-14T18:24:10.051Z,99.90
2023-02-14T18:29:12.747Z,99.90
2023-02-14T18:34:15.075Z,99.90
2023-02-14T18:39:17.380Z,99.90
2023-02-14T18:44:20.795Z,99.90
2023-02-14T18:49:23.490Z,99.90
2023-02-14T18:54:25.907Z,99.90
2023-02-14T18:59:28.149Z,99.90
2023-02-14T19:04:30.390Z,99.90
2023-02-14T19:09:38.933Z,99.90
2023-02-14T19:14:41.374Z,99.90
2023-02-14T19:19:43.628Z,99.90
2023-02-14T19:24:45.946Z,99.90
2023-02-14T19:29:48.331Z,99.90
2023-02-14T19:34:50.601Z,99.90
2023-02-14T19:39:53.001Z,99.90
2023-02-14T19:44:55.267Z,99.90
2023-02-14T19:49:59.547Z,99.90
2023-02-14T19:55:03.327Z,99.90
2023-02-14T20:00:08.635Z,99.90
2023-02-14T20:05:23.536Z,99.90
2023-02-14T20:10:25.824Z,99.90
2023-02-14T20:15:29.119Z,99.90
2023-02-14T20:20:54.334Z,99.90
2023-02-14T20:25:57.109Z,99.90
2023-02-14T20:30:59.605Z,99.90
2023-02-14T20:36:02.483Z,99.90
2023-02-14T20:41:10.466Z,99.90
2023-02-14T20:46:13.017Z,99.90
2023-02-14T20:51:17.934Z,99.90
2023-02-14T20:56:22.718Z,99.90
2023-02-14T21:01:25.194Z,99.90
2023-02-14T21:06:31.049Z,99.90
2023-02-14T21:11:33.355Z,99.90
2023-02-14T21:16:35.632Z,99.90
2023-02-14T21:21:39.586Z,99.90
2023-02-14T21:26:42.700Z,99.90
2023-02-14T21:31:45.146Z,99.90
2023-02-14T21:36:47.559Z,99.90
2023-02-14T21:41:49.821Z,99.90
2023-02-14T21:46:52.081Z,99.90
2023-02-14T21:51:54.871Z,99.90
2023-02-14T21:56:57.176Z,99.90
2023-02-14T22:01:59.429Z,99.90
2023-02-14T22:07:01.819Z,99.90
2023-02-14T22:12:04.233Z,99.90
2023-02-14T22:17:06.485Z,99.90
2023-02-14T22:22:08.717Z,99.90
2023-02-14T22:27:11.028Z,99.90
2023-02-14T22:32:13.336Z,99.90
2023-02-14T22:37:15.700Z,99.90
2023-02-14T22:42:18.032Z,99.90
2023-02-14T22:47:20.362Z,99.90
2023-02-14T22:52:22.698Z,99.90
2023-02-14T22:57:25.730Z,99.90
2023-02-14T23:02:28.031Z,99.90
2023-02-14T23:07:30.317Z,99.90
2023-02-14T23:12:50.981Z,99.90
2023-02-14T23:18:12.220Z,99.90
2023-02-14T23:23:16.872Z,99.90
2023-02-14T23:28:19.112Z,99.90
2023-02-14T23:33:21.374Z,99.90
2023-02-14T23:38:23.615Z,99.90
2023-02-14T23:43:25.889Z,99.90
2023-02-14T23:48:28.833Z,99.90
2023-02-14T23:53:31.091Z,99.90
2023-02-14T23:58:33.344Z,99.90
